createdAt,value
2018-08-23T00:01:58.409Z,101037.02
2018-08-23T00:04:28.558Z,101027.89
2018-08-23T00:07:01.481Z,101029.42
2018-08-23T00:09:35.771Z,101030.95
2018-08-23T00:12:05.894Z,101025.84
2018-08-23T00:14:36.048Z,101025.32
2018-08-23T00:17:06.216Z,101025.06
2018-08-23T00:19:36.348Z,101016.63
2018-08-23T00:22:06.737Z,101010.40
2018-08-23T00:24:36.868Z,101010.01
2018-08-23T00:27:07.056Z,101010.98
2018-08-23T00:29:37.261Z,101009.55
2018-08-23T00:32:08.445Z,101003.07
2018-08-23T00:34:40.396Z,101012.16
2018-08-23T00:37:11.005Z,101008.90
2018-08-23T00:39:41.221Z,101007.79
2018-08-23T00:42:12.574Z,101009.94
2018-08-23T00:44:58.329Z,101001.08
2018-08-23T00:47:30.598Z,101000.59
2018-08-23T00:50:01.148Z,100995.93
2018-08-23T00:52:47.133Z,101000.91
2018-08-23T00:55:24.161Z,101003.19
2018-08-23T00:57:54.406Z,100996.87
2018-08-23T01:00:25.899Z,100993.54
2018-08-23T01:03:02.933Z,100993.18
2018-08-23T01:05:40.870Z,100999.42
2018-08-23T01:08:11.103Z,100991.51
2018-08-23T01:10:41.649Z,100990.30
2018-08-23T01:13:12.025Z,100987.73
2018-08-23T01:15:45.117Z,100980.21
2018-08-23T01:18:18.339Z,100985.55
2018-08-23T01:20:49.807Z,100983.23
2018-08-23T01:23:20.090Z,100981.50
2018-08-23T01:25:50.908Z,100983.16
2018-08-23T01:28:21.064Z,100979.83
2018-08-23T01:30:51.769Z,100977.02
2018-08-23T01:33:22.732Z,100980.53
2018-08-23T01:35:53.230Z,100977.28
2018-08-23T01:38:23.358Z,100973.64
2018-08-23T01:40:59.838Z,100971.95
2018-08-23T01:43:30.010Z,100971.56
2018-08-23T01:46:00.197Z,100969.06
2018-08-23T01:48:30.535Z,100960.62
2018-08-23T01:51:00.716Z,100965.20
2018-08-23T01:53:34.922Z,100967.11
2018-08-23T01:56:05.060Z,100958.17
2018-08-23T01:58:35.954Z,100959.87
2018-08-23T02:01:18.194Z,100952.13
2018-08-23T02:03:48.483Z,100950.70
2018-08-23T02:06:18.605Z,100947.50
2018-08-23T02:08:48.710Z,100944.91
2018-08-23T02:11:18.872Z,100943.51
2018-08-23T02:13:50.073Z,100944.05
2018-08-23T02:16:20.152Z,100939.69
2018-08-23T02:18:50.302Z,100950.19
2018-08-23T02:21:20.482Z,100946.19
2018-08-23T02:23:53.469Z,100946.81
2018-08-23T02:26:23.579Z,100940.73
2018-08-23T02:28:53.632Z,100929.48
2018-08-23T02:31:23.784Z,100928.63
2018-08-23T02:33:53.849Z,100928.59
2018-08-23T02:36:25.297Z,100926.06
2018-08-23T02:39:02.549Z,100926.09
2018-08-23T02:41:32.851Z,100926.80
2018-08-23T02:44:02.943Z,100919.11
2018-08-23T02:46:33.930Z,100917.34
2018-08-23T02:49:04.013Z,100920.12
2018-08-23T02:51:42.908Z,100909.86
2018-08-23T02:54:14.898Z,100903.99
2018-08-23T02:56:49.994Z,100906.66
2018-08-23T02:59:20.117Z,100911.89
2018-08-23T03:01:50.994Z,100900.84
2018-08-23T03:04:29.253Z,100906.92
2018-08-23T03:07:01.823Z,100905.33
2018-08-23T03:09:39.396Z,100903.09
2018-08-23T03:12:14.928Z,100899.88
2018-08-23T03:14:45.094Z,100903.30
2018-08-23T03:17:19.332Z,100897.61
2018-08-23T03:20:11.280Z,100905.23
2018-08-23T03:22:41.931Z,100895.83
2018-08-23T03:25:13.335Z,100892.52
2018-08-23T03:27:43.499Z,100892.89
2018-08-23T03:30:14.972Z,100890.80
2018-08-23T03:32:45.143Z,100890.08
2018-08-23T03:35:15.289Z,100890.86
2018-08-23T03:37:45.453Z,100892.00
2018-08-23T03:40:16.600Z,100899.80
2018-08-23T03:42:46.734Z,100890.13
2018-08-23T03:45:22.058Z,100890.00
2018-08-23T03:47:53.342Z,100882.95
2018-08-23T03:50:23.512Z,100888.77
2018-08-23T03:52:54.839Z,100892.09
2018-08-23T03:55:26.556Z,100888.22
2018-08-23T03:58:03.298Z,100892.78
2018-08-23T04:00:38.388Z,100891.27
2018-08-23T04:03:13.527Z,100892.05
2018-08-23T04:05:43.626Z,100890.89
2018-08-23T04:08:13.788Z,100888.31
2018-08-23T04:10:43.905Z,100889.77
2018-08-23T04:13:14.061Z,100884.89
2018-08-23T04:15:44.141Z,100885.02
2018-08-23T04:18:18.078Z,100880.63
2018-08-23T04:20:57.989Z,100879.78
2018-08-23T04:23:28.087Z,100877.97
2018-08-23T04:25:58.201Z,100878.45
2018-08-23T04:28:28.412Z,100882.36
2018-08-23T04:30:58.568Z,100880.05
2018-08-23T04:33:28.664Z,100875.78
2018-08-23T04:35:58.750Z,100872.28
2018-08-23T04:38:28.857Z,100871.03
2018-08-23T04:41:02.419Z,100871.80
2018-08-23T04:43:32.566Z,100873.70
2018-08-23T04:46:06.788Z,100870.76
2018-08-23T04:48:36.929Z,100869.61
2018-08-23T04:51:07.253Z,100873.40
2018-08-23T04:53:37.404Z,100869.69
2018-08-23T04:56:07.510Z,100867.33
2018-08-23T04:58:37.698Z,100858.56
2018-08-23T05:01:07.891Z,100858.27
2018-08-23T05:03:38.064Z,100862.05
2018-08-23T05:06:08.286Z,100857.87
2018-08-23T05:08:38.467Z,100855.84
2018-08-23T05:11:08.602Z,100857.36
2018-08-23T05:13:38.804Z,100856.93
2018-08-23T05:16:08.860Z,100855.57
2018-08-23T05:18:38.988Z,100855.66
2018-08-23T05:21:09.093Z,100861.04
2018-08-23T05:23:39.180Z,100855.28
2018-08-23T05:26:18.711Z,100856.97
2018-08-23T05:29:02.660Z,100860.84
2018-08-23T05:31:33.696Z,100857.59
2018-08-23T05:34:05.283Z,100860.28
2018-08-23T05:36:35.455Z,100859.81
2018-08-23T05:39:08.595Z,100859.69
2018-08-23T05:41:38.721Z,100857.52
2018-08-23T05:44:19.055Z,100856.14
2018-08-23T05:46:51.850Z,100858.66
2018-08-23T05:49:21.987Z,100857.59
2018-08-23T05:51:52.274Z,100859.55
2018-08-23T05:54:22.342Z,100849.72
2018-08-23T05:56:52.534Z,100846.13
2018-08-23T05:59:25.271Z,100850.56
2018-08-23T06:01:55.431Z,100850.44
2018-08-23T06:04:41.176Z,100845.53
2018-08-23T06:07:11.363Z,100837.42
2018-08-23T06:09:43.987Z,100840.48
2018-08-23T06:12:14.044Z,100841.56
2018-08-23T06:14:44.222Z,100844.16
2018-08-23T06:17:14.329Z,100832.96
2018-08-23T06:19:44.455Z,100834.83
2018-08-23T06:22:14.507Z,100837.09
2018-08-23T06:24:44.682Z,100835.03
2018-08-23T06:27:14.972Z,100836.13
2018-08-23T06:29:45.189Z,100829.24
2018-08-23T06:32:16.443Z,100847.02
2018-08-23T06:34:53.419Z,100840.27
2018-08-23T06:37:23.923Z,100839.91
2018-08-23T06:39:54.111Z,100837.63
2018-08-23T06:42:45.536Z,100840.02
2018-08-23T06:45:15.747Z,100832.44
2018-08-23T06:47:50.357Z,100831.78
2018-08-23T06:50:22.773Z,100833.48
2018-08-23T06:52:52.901Z,100830.25
2018-08-23T06:55:27.865Z,100834.61
2018-08-23T06:57:59.850Z,100830.00
2018-08-23T07:00:30.020Z,100820.31
2018-08-23T07:03:00.112Z,100815.04
2018-08-23T07:05:30.364Z,100826.87
2018-08-23T07:08:00.476Z,100828.50
2018-08-23T07:10:30.701Z,100820.11
2018-08-23T07:13:00.818Z,100814.71
2018-08-23T07:15:30.943Z,100818.73
2018-08-23T07:18:02.987Z,100822.09
2018-08-23T07:20:33.179Z,100815.66
2018-08-23T07:23:03.530Z,100812.09
2018-08-23T07:25:37.900Z,100808.12
2018-08-23T07:28:08.053Z,100805.30
2018-08-23T07:30:38.175Z,100801.16
2018-08-23T07:33:08.354Z,100795.05
2018-08-23T07:35:38.466Z,100800.48
2018-08-23T07:38:08.651Z,100797.70
2018-08-23T07:40:38.805Z,100801.68
2018-08-23T07:43:09.050Z,100799.02
2018-08-23T07:45:39.204Z,100797.09
2018-08-23T07:48:09.353Z,100792.53
2018-08-23T07:50:39.475Z,100798.40
2018-08-23T07:53:09.646Z,100798.03
2018-08-23T07:55:40.056Z,100804.92
2018-08-23T07:58:10.182Z,100804.75
2018-08-23T08:00:43.452Z,100803.19
2018-08-23T08:03:14.745Z,100797.12
2018-08-23T08:05:46.133Z,100807.63
2018-08-23T08:08:16.267Z,100802.45
2018-08-23T08:10:47.142Z,100806.90
2018-08-23T08:13:17.223Z,100801.48
2018-08-23T08:15:47.429Z,100803.13
2018-08-23T08:18:24.227Z,100803.81
2018-08-23T08:21:04.423Z,100807.85
2018-08-23T08:23:34.630Z,100807.63
2018-08-23T08:26:04.767Z,100812.06
2018-08-23T08:28:34.778Z,100811.58
2018-08-23T08:31:05.132Z,100813.62
2018-08-23T08:33:37.186Z,100820.11
2018-08-23T08:36:07.869Z,100812.27
2018-08-23T08:38:38.164Z,100812.33
2018-08-23T08:41:09.317Z,100805.04
2018-08-23T08:43:40.881Z,100803.78
2018-08-23T08:46:11.085Z,100798.33
2018-08-23T08:48:41.233Z,100792.27
2018-08-23T08:51:32.389Z,100801.05
2018-08-23T08:54:03.861Z,100793.94
2018-08-23T08:56:41.785Z,100793.64
2018-08-23T08:59:11.883Z,100779.66
2018-08-23T09:01:41.999Z,100784.31
2018-08-23T09:04:16.144Z,100782.68
2018-08-23T09:06:47.497Z,100772.00
2018-08-23T09:09:29.116Z,100772.94
2018-08-23T09:12:02.855Z,100765.11
2018-08-23T09:14:33.202Z,100767.79
2018-08-23T09:17:23.856Z,100758.66
2018-08-23T09:20:07.955Z,100762.50
2018-08-23T09:22:40.603Z,100765.99
2018-08-23T09:25:21.321Z,100767.97
2018-08-23T09:27:51.924Z,100758.55
2018-08-23T09:30:29.377Z,100756.79
2018-08-23T09:33:03.594Z,100759.30
2018-08-23T09:35:34.352Z,100761.77
2018-08-23T09:38:13.989Z,100750.14
2018-08-23T09:40:44.084Z,100751.92
2018-08-23T09:43:14.289Z,100744.44
2018-08-23T09:45:44.416Z,100744.28
2018-08-23T09:48:14.633Z,100747.16
2018-08-23T09:50:44.871Z,100741.83
2018-08-23T09:53:19.991Z,100743.46
2018-08-23T09:55:51.664Z,100738.74
2018-08-23T09:58:27.330Z,100736.42
2018-08-23T10:01:02.502Z,100746.27
2018-08-23T10:03:37.816Z,100739.72
2018-08-23T10:06:13.132Z,100738.40
2018-08-23T10:08:48.317Z,100725.02
2018-08-23T10:11:23.512Z,100725.88
2018-08-23T10:13:58.789Z,100729.10
2018-08-23T10:17:31.625Z,100727.05
2018-08-23T10:20:06.924Z,100725.48
2018-08-23T10:22:42.057Z,100719.73
2018-08-23T10:25:33.161Z,100719.77
2018-08-23T10:28:03.414Z,100726.42
2018-08-23T10:30:33.638Z,100720.16
2018-08-23T10:33:03.707Z,100719.07
2018-08-23T10:35:34.204Z,100719.20
2018-08-23T10:38:04.463Z,100717.58
2018-08-23T10:40:34.692Z,100715.31
2018-08-23T10:43:04.838Z,100716.11
2018-08-23T10:45:34.965Z,100710.50
2018-08-23T10:48:10.221Z,100703.14
2018-08-23T10:50:40.482Z,100709.89
2018-08-23T10:53:10.692Z,100713.80
2018-08-23T10:55:41.178Z,100705.11
2018-08-23T10:58:11.329Z,100705.72
2018-08-23T11:00:41.789Z,100702.46
2018-08-23T11:03:11.874Z,100708.67
2018-08-23T11:05:42.026Z,100699.06
2018-08-23T11:08:17.414Z,100705.25
2018-08-23T11:10:52.547Z,100704.95
2018-08-23T11:13:27.679Z,100699.19
2018-08-23T11:16:02.897Z,100696.47
2018-08-23T11:18:38.033Z,100693.52
2018-08-23T11:21:13.460Z,100698.66
2018-08-23T11:23:44.580Z,100698.35
2018-08-23T11:26:21.798Z,100698.17
2018-08-23T11:28:52.304Z,100686.10
2018-08-23T11:31:27.709Z,100690.55
2018-08-23T11:33:57.873Z,100693.22
2018-08-23T11:36:28.027Z,100694.58
2018-08-23T11:38:58.247Z,100688.59
2018-08-23T11:41:28.546Z,100686.44
2018-08-23T11:43:58.674Z,100689.66
2018-08-23T11:46:29.049Z,100691.61
2018-08-23T11:48:59.190Z,100687.92
2018-08-23T11:51:29.313Z,100690.66
2018-08-23T11:53:59.650Z,100684.52
2018-08-23T11:56:29.800Z,100686.05
2018-08-23T11:59:00.071Z,100679.62
2018-08-23T12:01:30.234Z,100677.16
2018-08-23T12:04:00.397Z,100683.17
2018-08-23T12:06:30.579Z,100682.67
2018-08-23T12:09:00.723Z,100672.55
2018-08-23T12:11:30.831Z,100676.11
2018-08-23T12:14:01.770Z,100681.53
2018-08-23T12:16:31.948Z,100679.88
2018-08-23T12:19:02.176Z,100671.76
2018-08-23T12:21:32.307Z,100672.97
2018-08-23T12:24:02.454Z,100681.11
2018-08-23T12:26:32.632Z,100671.60
2018-08-23T12:29:08.688Z,100681.37
2018-08-23T12:31:39.123Z,100673.52
2018-08-23T12:34:10.369Z,100674.31
2018-08-23T12:36:45.479Z,100678.52
2018-08-23T12:39:20.537Z,100669.33
2018-08-23T12:41:55.911Z,100678.96
2018-08-23T12:44:25.959Z,100674.98
2018-08-23T12:47:01.236Z,100670.03
2018-08-23T12:49:31.406Z,100665.22
2018-08-23T12:52:01.503Z,100665.59
2018-08-23T12:54:31.638Z,100658.14
2018-08-23T12:57:01.735Z,100659.02
2018-08-23T12:59:32.006Z,100650.43
2018-08-23T13:02:02.400Z,100650.48
2018-08-23T13:04:32.559Z,100641.06
2018-08-23T13:07:02.683Z,100642.09
2018-08-23T13:09:32.875Z,100634.08
2018-08-23T13:12:03.028Z,100632.89
2018-08-23T13:14:33.198Z,100638.38
2018-08-23T13:17:03.359Z,100627.16
2018-08-23T13:19:33.557Z,100619.78
2018-08-23T13:22:04.373Z,100624.44
2018-08-23T13:24:38.488Z,100620.60
2018-08-23T13:27:08.595Z,100612.77
2018-08-23T13:29:39.043Z,100616.87
2018-08-23T13:32:09.238Z,100614.91
2018-08-23T13:34:39.283Z,100614.73
2018-08-23T13:37:09.439Z,100610.95
2018-08-23T13:39:39.513Z,100609.83
2018-08-23T13:42:09.687Z,100619.85
2018-08-23T13:44:39.791Z,100619.16
2018-08-23T13:47:09.977Z,100610.13
2018-08-23T13:49:40.051Z,100600.30
2018-08-23T13:52:10.317Z,100606.40
2018-08-23T13:54:40.468Z,100603.13
2018-08-23T13:57:10.646Z,100605.73
2018-08-23T13:59:40.969Z,100596.97
2018-08-23T14:02:11.205Z,100598.37
2018-08-23T14:04:41.350Z,100589.92
2018-08-23T14:07:11.484Z,100584.92
2018-08-23T14:09:41.627Z,100578.88
2018-08-23T14:12:11.806Z,100581.98
2018-08-23T14:14:41.869Z,100591.45
2018-08-23T14:17:12.052Z,100582.09
2018-08-23T14:19:42.218Z,100569.20
2018-08-23T14:22:12.394Z,100578.23
2018-08-23T14:24:42.458Z,100586.75
2018-08-23T14:27:12.705Z,100581.74
2018-08-23T14:29:42.776Z,100584.76
2018-08-23T14:32:12.889Z,100582.22
2018-08-23T14:34:42.937Z,100579.27
2018-08-23T14:37:13.092Z,100576.97
2018-08-23T14:39:43.315Z,100572.07
2018-08-23T14:42:13.465Z,100569.38
2018-08-23T14:44:43.559Z,100564.23
2018-08-23T14:47:18.681Z,100560.27
2018-08-23T14:49:48.752Z,100557.48
2018-08-23T14:52:18.832Z,100562.58
2018-08-23T14:54:48.915Z,100546.00
2018-08-23T14:57:24.041Z,100559.01
2018-08-23T14:59:54.187Z,100563.03
2018-08-23T15:02:24.313Z,100555.28
2018-08-23T15:04:54.436Z,100552.77
2018-08-23T15:07:24.582Z,100547.78
2018-08-23T15:09:54.684Z,100547.44
2018-08-23T15:12:24.846Z,100548.45
2018-08-23T15:14:54.996Z,100544.78
2018-08-23T15:17:25.145Z,100548.97
2018-08-23T15:19:55.248Z,100549.56
2018-08-23T15:22:25.404Z,100561.59
2018-08-23T15:24:55.585Z,100549.78
2018-08-23T15:27:25.818Z,100553.14
2018-08-23T15:29:55.881Z,100553.50
2018-08-23T15:32:26.083Z,100541.00
2018-08-23T15:34:56.197Z,100535.97
2018-08-23T15:37:26.472Z,100538.09
2018-08-23T15:39:56.601Z,100529.41
2018-08-23T15:42:26.741Z,100536.19
2018-08-23T15:44:56.920Z,100534.36
2018-08-23T15:47:27.051Z,100530.52
2018-08-23T15:49:57.182Z,100538.91
2018-08-23T15:52:27.299Z,100535.09
2018-08-23T15:54:57.442Z,100533.59
2018-08-23T15:57:27.597Z,100537.52
2018-08-23T15:59:57.784Z,100536.50
2018-08-23T16:02:27.937Z,100536.28
2018-08-23T16:05:00.998Z,100538.07
2018-08-23T16:07:31.103Z,100542.91
2018-08-23T16:10:01.229Z,100538.16
2018-08-23T16:12:31.319Z,100529.09
2018-08-23T16:15:01.505Z,100533.84
2018-08-23T16:17:36.802Z,100533.23
2018-08-23T16:21:10.925Z,100530.23
2018-08-23T16:23:41.034Z,100523.61
2018-08-23T16:26:11.090Z,100529.98
2018-08-23T16:28:41.277Z,100523.89
2018-08-23T16:31:11.395Z,100526.91
2018-08-23T16:33:41.521Z,100522.75
2018-08-23T16:36:11.662Z,100522.09
2018-08-23T16:38:41.844Z,100520.03
2018-08-23T16:41:12.026Z,100519.55
2018-08-23T16:43:42.141Z,100517.69
2018-08-23T16:46:12.296Z,100514.30
2018-08-23T16:48:42.476Z,100513.46
2018-08-23T16:51:12.555Z,100511.27
2018-08-23T16:53:42.985Z,100516.17
2018-08-23T16:56:13.112Z,100514.97
2018-08-23T16:58:43.459Z,100510.25
2018-08-23T17:01:13.489Z,100513.20
2018-08-23T17:03:45.501Z,100521.58
2018-08-23T17:06:15.709Z,100511.45
2018-08-23T17:08:46.082Z,100512.13
2018-08-23T17:11:16.297Z,100509.78
2018-08-23T17:13:46.463Z,100502.66
2018-08-23T17:16:21.598Z,100501.31
2018-08-23T17:18:52.381Z,100511.11
2018-08-23T17:21:22.785Z,100504.33
2018-08-23T17:23:52.914Z,100503.61
2018-08-23T17:26:23.059Z,100503.12
2018-08-23T17:28:53.257Z,100505.59
2018-08-23T17:31:23.411Z,100502.30
2018-08-23T17:33:53.495Z,100500.70
2018-08-23T17:36:23.602Z,100502.38
2018-08-23T17:38:53.874Z,100502.63
2018-08-23T17:41:23.901Z,100497.72
2018-08-23T17:43:53.982Z,100503.72
2018-08-23T17:46:24.078Z,100501.19
2018-08-23T17:48:54.231Z,100505.59
2018-08-23T17:51:24.334Z,100506.66
2018-08-23T17:53:54.520Z,100507.42
2018-08-23T17:56:24.622Z,100508.39
2018-08-23T17:58:54.785Z,100504.69
2018-08-23T18:01:24.969Z,100508.47
2018-08-23T18:03:55.080Z,100518.48
2018-08-23T18:06:25.205Z,100516.30
2018-08-23T18:08:55.336Z,100520.39
2018-08-23T18:11:25.483Z,100524.78
2018-08-23T18:13:55.586Z,100522.92
2018-08-23T18:16:30.784Z,100517.71
2018-08-23T18:19:00.897Z,100526.00
2018-08-23T18:21:30.951Z,100530.64
2018-08-23T18:24:01.089Z,100533.20
2018-08-23T18:26:31.215Z,100532.41
2018-08-23T18:29:01.417Z,100531.61
2018-08-23T18:31:31.793Z,100527.55
2018-08-23T18:34:02.223Z,100527.31
2018-08-23T18:36:32.347Z,100535.07
2018-08-23T18:39:02.465Z,100538.11
2018-08-23T18:41:32.575Z,100531.36
2018-08-23T18:44:02.700Z,100537.16
2018-08-23T18:46:33.007Z,100533.88
2018-08-23T18:49:03.175Z,100533.80
2018-08-23T18:51:33.310Z,100537.60
2018-08-23T18:54:03.611Z,100533.25
2018-08-23T18:56:33.743Z,100536.91
2018-08-23T18:59:03.917Z,100536.07
2018-08-23T19:01:34.054Z,100542.02
2018-08-23T19:04:04.455Z,100537.98
2018-08-23T19:06:34.705Z,100533.77
2018-08-23T19:09:07.766Z,100534.27
2018-08-23T19:11:38.845Z,100541.33
2018-08-23T19:14:08.985Z,100544.25
2018-08-23T19:16:44.184Z,100541.11
2018-08-23T19:19:14.432Z,100540.55
2018-08-23T19:21:44.582Z,100539.90
2018-08-23T19:24:14.820Z,100536.97
2018-08-23T19:26:45.099Z,100535.63
2018-08-23T19:29:15.238Z,100537.06
2018-08-23T19:31:45.432Z,100528.73
2018-08-23T19:34:15.703Z,100532.85
2018-08-23T19:36:45.840Z,100526.95
2018-08-23T19:39:16.081Z,100522.54
2018-08-23T19:41:46.307Z,100526.45
2018-08-23T19:44:16.518Z,100525.22
2018-08-23T19:46:51.705Z,100531.31
2018-08-23T19:49:26.890Z,100522.72
2018-08-23T19:51:57.010Z,100525.34
2018-08-23T19:54:27.589Z,100524.54
2018-08-23T19:56:57.705Z,100519.47
2018-08-23T19:59:27.848Z,100517.45
2018-08-23T20:01:57.997Z,100524.63
2018-08-23T20:04:28.097Z,100524.05
2018-08-23T20:06:58.270Z,100520.66
2018-08-23T20:09:28.406Z,100516.39
2018-08-23T20:11:58.580Z,100513.62
2018-08-23T20:14:28.880Z,100509.84
2018-08-23T20:16:59.393Z,100510.52
2018-08-23T20:19:29.760Z,100509.80
2018-08-23T20:22:00.082Z,100511.67
2018-08-23T20:24:30.222Z,100519.17
2018-08-23T20:27:00.355Z,100510.07
2018-08-23T20:29:30.507Z,100515.80
2018-08-23T20:32:00.650Z,100512.36
2018-08-23T20:34:30.968Z,100513.55
2018-08-23T20:37:01.241Z,100515.60
2018-08-23T20:39:31.523Z,100512.55
2018-08-23T20:42:01.858Z,100513.43
2018-08-23T20:44:32.008Z,100520.50
2018-08-23T20:47:02.266Z,100522.48
2018-08-23T20:49:32.490Z,100523.09
2018-08-23T20:52:02.690Z,100520.92
2018-08-23T20:54:32.937Z,100519.44
2018-08-23T20:57:02.987Z,100514.20
2018-08-23T20:59:33.073Z,100523.32
2018-08-23T21:02:03.342Z,100518.25
2018-08-23T21:04:33.606Z,100515.91
2018-08-23T21:07:03.692Z,100518.37
2018-08-23T21:09:33.781Z,100523.55
2018-08-23T21:12:04.005Z,100518.55
2018-08-23T21:14:34.160Z,100519.97
2018-08-23T21:17:04.243Z,100520.98
2018-08-23T21:19:34.489Z,100523.70
2018-08-23T21:22:05.383Z,100517.44
2018-08-23T21:24:35.678Z,100518.89
2018-08-23T21:27:06.311Z,100517.20
2018-08-23T21:29:36.521Z,100519.91
2018-08-23T21:32:06.627Z,100516.73
2018-08-23T21:34:36.739Z,100519.58
2018-08-23T21:37:06.891Z,100520.58
2018-08-23T21:39:37.059Z,100513.43
2018-08-23T21:42:07.189Z,100516.71
2018-08-23T21:44:37.404Z,100509.69
2018-08-23T21:47:08.354Z,100512.05
2018-08-23T21:49:38.582Z,100506.51
2018-08-23T21:52:08.633Z,100508.47
2018-08-23T21:54:38.802Z,100501.05
2018-08-23T21:57:08.908Z,100508.77
2018-08-23T21:59:39.153Z,100506.47
2018-08-23T22:02:14.297Z,100504.36
2018-08-23T22:04:49.338Z,100507.33
2018-08-23T22:07:19.602Z,100501.57
2018-08-23T22:09:51.680Z,100501.50
2018-08-23T22:12:23.944Z,100508.18
2018-08-23T22:14:55.112Z,100504.84
2018-08-23T22:17:25.272Z,100507.55
2018-08-23T22:19:55.483Z,100514.96
2018-08-23T22:22:25.600Z,100502.98
2018-08-23T22:24:55.781Z,100504.41
2018-08-23T22:27:25.921Z,100503.29
2018-08-23T22:29:56.213Z,100504.34
2018-08-23T22:32:26.246Z,100503.75
2018-08-23T22:34:56.297Z,100498.47
2018-08-23T22:37:26.404Z,100498.47
2018-08-23T22:39:56.570Z,100497.59
2018-08-23T22:42:26.690Z,100495.91
2018-08-23T22:44:56.850Z,100501.61
2018-08-23T22:47:27.074Z,100500.55
2018-08-23T22:49:57.241Z,100493.14
2018-08-23T22:52:27.438Z,100497.48
2018-08-23T22:54:57.544Z,100496.85
2018-08-23T22:57:27.693Z,100498.36
2018-08-23T22:59:57.835Z,100487.83
2018-08-23T23:02:32.980Z,100491.02
2018-08-23T23:05:03.119Z,100494.18
2018-08-23T23:07:33.255Z,100490.02
2018-08-23T23:10:04.025Z,100497.87
2018-08-23T23:12:35.265Z,100493.77
2018-08-23T23:15:38.115Z,100498.09
2018-08-23T23:18:08.239Z,100502.33
2018-08-23T23:20:38.430Z,100507.16
2018-08-23T23:23:08.654Z,100507.72
2018-08-23T23:25:38.789Z,100513.02
2018-08-23T23:28:09.129Z,100513.91
2018-08-23T23:30:39.312Z,100509.39
2018-08-23T23:33:09.546Z,100508.94
2018-08-23T23:35:39.697Z,100510.38
2018-08-23T23:38:09.833Z,100513.73
2018-08-23T23:40:40.004Z,100504.87
2018-08-23T23:43:10.132Z,100507.78
2018-08-23T23:45:40.429Z,100501.86
2018-08-23T23:48:10.562Z,100506.34
2018-08-23T23:50:40.726Z,100504.27
2018-08-23T23:53:11.048Z,100491.55
2018-08-23T23:55:41.213Z,100486.84
2018-08-23T23:58:11.334Z,100480.92
